Time;durP1;ratioP1;P1;durP2;ratioP2;P2;SDS_P1;SDS_P2;PMS_P1;PMS_P2;Temp;Humidity;BMP_temperature;BMP_pressure;BME280_temperature;BME280_humidity;BME280_pressure;Samples;Min_cycle;Max_cycle;Signal;HPM_P1;HPM_P2
2022/07/07 00:01:26;;;;;;;4.73;3.00;;;20.40;68.80;;;;;;4994403;28;20262;-89
2022/07/07 00:03:53;;;;;;;3.37;3.03;;;20.40;68.70;;;;;;4992866;28;20847;-89
2022/07/07 00:06:19;;;;;;;3.33;2.97;;;20.40;68.70;;;;;;4992834;28;20433;-89
2022/07/07 00:08:54;;;;;;;3.83;3.13;;;20.40;68.80;;;;;;4993530;28;20879;-89
2022/07/07 00:11:21;;;;;;;5.20;3.70;;;20.40;68.90;;;;;;4977194;28;20465;-89
2022/07/07 00:13:46;;;;;;;3.60;3.23;;;20.60;68.10;;;;;;4995612;28;20430;-89
2022/07/07 00:16:12;;;;;;;3.80;3.50;;;20.50;68.60;;;;;;4996545;28;20821;-89
2022/07/07 00:18:38;;;;;;;6.90;3.30;;;20.40;68.80;;;;;;4996923;28;20209;-89
2022/07/07 00:21:04;;;;;;;5.23;3.63;;;20.40;69.20;;;;;;4993668;28;20183;-89
2022/07/07 00:23:30;;;;;;;6.00;3.90;;;20.30;69.30;;;;;;4979592;28;20222;-89
2022/07/07 00:25:56;;;;;;;5.00;3.90;;;20.30;69.70;;;;;;4978712;28;20258;-89
2022/07/07 00:28:22;;;;;;;5.20;3.33;;;20.30;69.60;;;;;;4976276;28;20466;-89
2022/07/07 00:30:47;;;;;;;6.03;4.00;;;20.20;69.60;;;;;;4979330;28;20461;-89
2022/07/07 00:33:14;;;;;;;5.40;3.70;;;20.30;69.80;;;;;;4963630;28;20208;-89
2022/07/07 00:35:40;;;;;;;4.40;3.60;;;20.30;69.90;;;;;;4978966;28;20617;-88
2022/07/07 00:38:06;;;;;;;5.70;3.35;;;20.20;69.90;;;;;;4995499;28;20410;-88
2022/07/07 00:40:32;;;;;;;3.90;3.43;;;20.30;69.60;;;;;;4997763;28;20674;-89
2022/07/07 00:42:58;;;;;;;5.20;3.33;;;20.30;69.60;;;;;;4998226;28;20244;-88
2022/07/07 00:45:24;;;;;;;4.40;4.00;;;20.30;69.70;;;;;;4999152;28;20918;-89
2022/07/07 00:47:50;;;;;;;4.43;3.40;;;20.20;69.90;;;;;;4996914;28;20925;-89
2022/07/07 00:50:16;;;;;;;5.70;4.00;;;20.20;70.20;;;;;;4996980;28;20426;-89
2022/07/07 00:52:42;;;;;;;5.70;3.73;;;20.20;70.30;;;;;;4991675;28;20907;-89
2022/07/07 00:55:08;;;;;;;5.80;4.30;;;20.20;70.30;;;;;;4976661;28;21043;-88
2022/07/07 00:57:34;;;;;;;7.30;5.13;;;20.20;70.30;;;;;;4977125;28;20186;-88
2022/07/07 01:00:05;;;;;;;8.05;5.68;;;20.20;70.30;;;;;;4987963;28;20461;-89
2022/07/07 01:02:31;;;;;;;6.10;5.38;;;20.20;70.40;;;;;;4995451;28;20207;-89
2022/07/07 01:04:59;;;;;;;6.10;4.43;;;20.20;70.50;;;;;;4996552;28;20175;-88
2022/07/07 01:07:26;;;;;;;6.00;5.33;;;20.20;70.50;;;;;;4996579;28;20423;-89
2022/07/07 01:09:53;;;;;;;6.17;4.37;;;20.10;70.60;;;;;;4995039;28;20423;-88
2022/07/07 01:12:19;;;;;;;7.90;5.17;;;20.10;70.70;;;;;;4994948;28;20430;-89
2022/07/07 01:14:45;;;;;;;6.43;5.10;;;20.10;70.70;;;;;;4995526;28;20519;-89
2022/07/07 01:17:11;;;;;;;5.00;4.50;;;20.20;70.70;;;;;;4997529;28;20180;-89
2022/07/07 01:19:36;;;;;;;8.07;4.57;;;20.20;70.80;;;;;;4996139;28;20635;-88
2022/07/07 01:22:13;;;;;;;4.60;4.10;;;20.10;70.70;;;;;;4996410;28;20175;-89
2022/07/07 01:24:39;;;;;;;5.60;3.90;;;20.10;70.90;;;;;;4995048;28;20504;-89
2022/07/07 01:27:32;;;;;;;6.87;4.70;;;20.10;71.00;;;;;;4997166;28;20402;-88
2022/07/07 01:29:58;;;;;;;3.80;3.50;;;20.10;71.10;;;;;;4996103;28;20187;-89
2022/07/07 01:32:25;;;;;;;6.20;3.80;;;20.10;71.10;;;;;;4995859;28;20303;-89
2022/07/07 01:34:51;;;;;;;7.30;4.63;;;20.20;71.00;;;;;;4996023;28;20464;-89
2022/07/07 01:37:18;;;;;;;4.60;3.87;;;20.10;71.10;;;;;;4995789;28;20414;-89
2022/07/07 01:39:44;;;;;;;5.80;4.23;;;20.10;71.20;;;;;;4979686;28;20428;-89
2022/07/07 01:42:11;;;;;;;5.17;4.67;;;20.10;72.20;;;;;;4995890;28;20798;-88
2022/07/07 01:44:39;;;;;;;5.27;4.77;;;20.10;71.40;;;;;;4997199;28;20418;-88
2022/07/07 01:47:05;;;;;;;7.30;4.57;;;20.10;71.60;;;;;;5011860;28;20457;-89
2022/07/07 01:49:32;;;;;;;6.87;4.80;;;20.10;71.80;;;;;;5005896;28;20517;-89
2022/07/07 01:51:58;;;;;;;5.68;4.18;;;20.10;71.90;;;;;;4997302;28;20541;-89
2022/07/07 01:54:25;;;;;;;6.00;4.27;;;20.10;72.00;;;;;;4995798;28;20229;-89
2022/07/07 01:56:50;;;;;;;8.93;5.00;;;20.10;72.10;;;;;;4995646;28;20438;-89
2022/07/07 01:59:16;;;;;;;6.17;4.53;;;20.10;72.10;;;;;;4996422;28;20415;-90
2022/07/07 02:01:42;;;;;;;8.53;3.90;;;20.10;71.90;;;;;;4997531;28;20234;-90
2022/07/07 02:04:08;;;;;;;8.13;4.53;;;20.10;72.10;;;;;;4995902;28;20726;-89
2022/07/07 02:06:34;;;;;;;6.40;3.87;;;20.10;72.30;;;;;;4996574;28;20505;-89
2022/07/07 02:09:00;;;;;;;6.93;4.33;;;20.10;72.20;;;;;;4995260;28;20429;-88
2022/07/07 02:11:28;;;;;;;6.77;4.10;;;20.10;72.50;;;;;;4994830;28;20437;-89
2022/07/07 02:13:55;;;;;;;6.70;5.17;;;20.10;72.70;;;;;;4995561;28;20199;-89
2022/07/07 02:16:23;;;;;;;7.40;4.55;;;20.10;72.90;;;;;;4995320;28;20523;-89
2022/07/07 02:18:53;;;;;;;6.63;4.30;;;20.10;73.10;;;;;;4996054;28;20187;-89
2022/07/07 02:21:20;;;;;;;5.90;4.57;;;20.00;73.10;;;;;;4995497;28;20422;-89
2022/07/07 02:23:47;;;;;;;8.27;5.28;;;20.10;73.30;;;;;;4994001;28;20804;-89
2022/07/07 02:26:13;;;;;;;8.82;4.82;;;20.10;73.40;;;;;;4996878;28;20652;-89
2022/07/07 02:28:40;;;;;;;11.60;4.73;;;20.10;73.50;;;;;;4995246;28;20211;-89
2022/07/07 02:31:06;;;;;;;7.27;4.47;;;20.00;73.50;;;;;;4994813;28;20481;-88
2022/07/07 02:33:33;;;;;;;4.83;3.77;;;20.00;73.50;;;;;;4994406;28;20562;-89
2022/07/07 02:35:59;;;;;;;4.87;3.80;;;20.00;73.50;;;;;;4989168;28;20459;-88
2022/07/07 02:38:25;;;;;;;5.33;4.47;;;20.00;73.60;;;;;;4982786;28;20465;-89
2022/07/07 02:40:51;;;;;;;6.10;3.73;;;20.00;73.60;;;;;;4980193;28;20430;-88
2022/07/07 02:43:18;;;;;;;5.00;3.53;;;20.00;73.70;;;;;;4975912;28;20431;-88
2022/07/07 02:45:45;;;;;;;6.47;3.90;;;20.10;73.80;;;;;;4976093;28;20422;-89
2022/07/07 02:48:14;;;;;;;6.83;4.30;;;20.10;73.40;;;;;;4976328;28;20419;-89
2022/07/07 02:50:40;;;;;;;11.18;4.00;;;20.10;73.60;;;;;;4976070;28;20423;-89
2022/07/07 02:53:06;;;;;;;7.87;4.17;;;20.10;73.70;;;;;;4977396;28;20204;-88
2022/07/07 02:55:33;;;;;;;7.73;4.03;;;20.10;73.80;;;;;;4978058;28;21425;-89
2022/07/07 02:58:00;;;;;;;4.25;3.40;;;20.10;73.70;;;;;;4996515;28;20922;-88
2022/07/07 03:00:27;;;;;;;7.03;3.70;;;20.00;73.70;;;;;;4997227;28;20229;-88
2022/07/07 03:02:54;;;;;;;5.80;3.63;;;20.00;73.60;;;;;;4997134;28;20445;-89
2022/07/07 03:05:21;;;;;;;6.78;3.40;;;20.00;73.50;;;;;;4997064;28;20491;-89
2022/07/07 03:07:47;;;;;;;4.40;3.27;;;20.10;73.60;;;;;;4996486;28;20201;-89
2022/07/07 03:10:13;;;;;;;6.90;3.92;;;20.00;74.00;;;;;;4996222;28;20457;-89
2022/07/07 03:12:39;;;;;;;6.50;3.13;;;20.00;74.40;;;;;;4995514;28;20257;-88
2022/07/07 03:15:06;;;;;;;5.53;2.50;;;19.90;73.60;;;;;;4996239;28;20695;-88
2022/07/07 03:17:31;;;;;;;8.10;2.70;;;19.90;73.30;;;;;;4980572;28;20437;-88
2022/07/07 03:19:57;;;;;;;4.20;1.70;;;19.80;72.90;;;;;;4997274;28;20179;-88
2022/07/07 03:22:23;;;;;;;2.57;1.80;;;19.80;71.20;;;;;;4996361;28;20485;-89
2022/07/07 03:24:48;;;;;;;2.53;1.80;;;19.70;70.70;;;;;;4997224;28;20290;-89
2022/07/07 03:27:14;;;;;;;4.50;2.23;;;19.70;70.50;;;;;;4997398;28;20203;-89
2022/07/07 03:29:40;;;;;;;2.17;1.63;;;19.70;70.30;;;;;;4998051;28;20189;-88
2022/07/07 03:32:06;;;;;;;3.53;1.67;;;19.60;70.70;;;;;;4997965;28;20179;-89
2022/07/07 03:34:31;;;;;;;5.65;1.90;;;19.60;71.20;;;;;;5001330;28;20240;-88
2022/07/07 03:36:57;;;;;;;3.87;2.00;;;19.60;71.50;;;;;;5010478;28;20195;-89
2022/07/07 03:39:23;;;;;;;4.53;2.03;;;19.60;71.90;;;;;;5010725;28;20191;-89
2022/07/07 03:41:49;;;;;;;2.53;2.00;;;19.50;72.20;;;;;;4998961;28;20419;-89
2022/07/07 03:44:15;;;;;;;2.60;1.63;;;19.50;72.30;;;;;;4998201;28;20453;-88
2022/07/07 03:46:40;;;;;;;5.23;1.73;;;19.50;72.60;;;;;;4998095;28;20195;-90
2022/07/07 03:49:07;;;;;;;2.47;1.60;;;19.50;72.40;;;;;;5003569;28;20179;-88
2022/07/07 03:51:33;;;;;;;1.90;1.67;;;19.50;72.40;;;;;;5003381;28;20190;-89
2022/07/07 03:53:59;;;;;;;2.90;1.83;;;19.50;72.50;;;;;;5001923;28;20230;-89
2022/07/07 03:56:24;;;;;;;4.70;2.23;;;19.50;72.50;;;;;;5002262;28;20489;-89
2022/07/07 03:58:50;;;;;;;3.80;2.50;;;19.50;74.00;;;;;;5001524;28;20179;-89
2022/07/07 04:01:16;;;;;;;5.33;2.73;;;19.50;75.80;;;;;;5002130;28;20183;-89
2022/07/07 04:03:41;;;;;;;2.13;1.93;;;19.40;77.10;;;;;;5001827;28;20195;-89
2022/07/07 04:06:07;;;;;;;6.80;2.23;;;19.40;77.40;;;;;;5004441;28;20949;-88
2022/07/07 04:08:33;;;;;;;3.73;2.10;;;19.30;77.20;;;;;;5010390;28;20186;-88
2022/07/07 04:10:59;;;;;;;2.60;1.50;;;19.20;76.90;;;;;;5009480;28;20584;-88
2022/07/07 04:13:25;;;;;;;3.57;1.90;;;19.20;76.60;;;;;;5008830;28;20218;-88
2022/07/07 04:15:50;;;;;;;3.33;2.00;;;19.30;76.60;;;;;;4998378;28;20210;-88
2022/07/07 04:18:16;;;;;;;2.90;2.00;;;19.30;75.60;;;;;;4998559;28;20418;-88
2022/07/07 04:20:42;;;;;;;2.80;2.07;;;19.40;75.10;;;;;;4998719;28;20635;-88
2022/07/07 04:23:08;;;;;;;2.43;1.77;;;19.30;74.50;;;;;;4997843;28;20458;-89
2022/07/07 04:25:34;;;;;;;4.00;1.73;;;19.40;75.30;;;;;;4997748;28;20653;-88
2022/07/07 04:27:59;;;;;;;4.50;1.60;;;19.40;73.90;;;;;;4997546;28;20418;-88
2022/07/07 04:30:25;;;;;;;3.00;2.00;;;19.40;73.60;;;;;;4999390;28;20187;-88
2022/07/07 04:32:51;;;;;;;2.43;1.43;;;19.40;73.30;;;;;;4997948;28;20210;-88
2022/07/07 04:35:16;;;;;;;3.30;1.87;;;19.40;73.80;;;;;;4997985;28;20203;-88
2022/07/07 04:37:42;;;;;;;2.73;1.70;;;19.40;72.90;;;;;;4978343;28;20187;-88
2022/07/07 04:40:08;;;;;;;3.63;1.90;;;19.40;72.70;;;;;;4978015;28;20180;-88
2022/07/07 04:42:34;;;;;;;3.45;1.45;;;19.50;72.70;;;;;;4977823;28;20814;-88
2022/07/07 04:44:59;;;;;;;4.00;2.00;;;19.50;72.80;;;;;;4977351;28;20226;-88
2022/07/07 04:47:25;;;;;;;2.80;1.87;;;19.50;72.50;;;;;;4977437;28;20565;-88
2022/07/07 04:49:51;;;;;;;4.17;2.00;;;19.50;72.50;;;;;;4977783;28;20188;-88
2022/07/07 04:52:17;;;;;;;2.92;1.52;;;19.50;72.50;;;;;;4978232;28;20192;-88
2022/07/07 04:54:43;;;;;;;4.63;2.27;;;19.60;72.30;;;;;;4997696;28;20198;-88
2022/07/07 04:57:09;;;;;;;4.23;2.60;;;19.40;75.30;;;;;;4996558;28;20418;-88
2022/07/07 04:59:35;;;;;;;4.90;2.47;;;19.10;82.70;;;;;;4998181;28;20271;-88
2022/07/07 05:02:01;;;;;;;4.17;2.30;;;18.90;85.30;;;;;;4996168;28;20474;-89
2022/07/07 05:04:27;;;;;;;7.77;3.10;;;18.60;86.20;;;;;;4996219;28;20183;-89
2022/07/07 05:06:52;;;;;;;4.53;2.50;;;18.30;87.40;;;;;;4996892;28;20506;-89
2022/07/07 05:09:18;;;;;;;5.33;2.77;;;18.10;88.20;;;;;;5000104;28;20509;-88
2022/07/07 05:11:44;;;;;;;4.20;2.20;;;17.90;89.10;;;;;;5000031;28;20171;-88
2022/07/07 05:14:10;;;;;;;3.20;2.17;;;17.80;89.50;;;;;;4998361;28;20450;-88
2022/07/07 05:16:36;;;;;;;6.50;2.93;;;17.70;90.00;;;;;;5000201;28;20261;-89
2022/07/07 05:19:02;;;;;;;6.40;3.13;;;17.60;90.30;;;;;;5000350;28;20191;-90
2022/07/07 05:21:27;;;;;;;3.50;2.90;;;17.60;91.80;;;;;;4999458;28;20183;-88
2022/07/07 05:23:53;;;;;;;4.60;3.70;;;17.60;91.40;;;;;;5000182;28;20215;-88
2022/07/07 05:26:19;;;;;;;10.37;4.30;;;17.60;92.00;;;;;;5002079;28;20166;-87
2022/07/07 05:28:44;;;;;;;6.90;4.60;;;17.60;92.20;;;;;;5019503;28;20156;-88
2022/07/07 05:31:14;;;;;;;5.43;2.77;;;17.60;92.70;;;;;;5002619;28;20567;-89
2022/07/07 05:33:41;;;;;;;5.03;3.22;;;17.50;92.70;;;;;;4999272;28;20341;-89
2022/07/07 05:36:07;;;;;;;4.85;2.88;;;17.60;92.80;;;;;;5000009;28;20353;-90
2022/07/07 05:38:34;;;;;;;3.92;2.55;;;17.60;92.70;;;;;;5000690;28;20183;-89
2022/07/07 05:41:00;;;;;;;3.60;2.30;;;17.70;92.70;;;;;;5000092;28;20280;-89
2022/07/07 05:43:27;;;;;;;3.03;2.53;;;17.80;92.70;;;;;;4999208;28;20198;-89
2022/07/07 05:45:53;;;;;;;4.53;2.80;;;17.80;92.80;;;;;;4999454;28;20217;-88
2022/07/07 05:48:18;;;;;;;4.70;2.80;;;17.90;93.00;;;;;;4999459;28;20647;-88
2022/07/07 05:50:44;;;;;;;2.77;2.20;;;18.00;92.30;;;;;;4998737;28;20655;-88
2022/07/07 05:53:11;;;;;;;9.60;2.40;;;18.00;90.90;;;;;;4999828;28;20231;-87
2022/07/07 05:55:36;;;;;;;4.05;1.90;;;18.00;90.40;;;;;;4998653;28;20298;-88
2022/07/07 05:58:02;;;;;;;5.23;2.10;;;18.00;89.60;;;;;;5000731;28;20203;-88
2022/07/07 06:00:28;;;;;;;4.50;2.30;;;18.00;89.60;;;;;;5004090;28;20191;-87
2022/07/07 06:02:54;;;;;;;4.03;1.97;;;18.10;89.10;;;;;;4982713;28;20504;-87
2022/07/07 06:05:21;;;;;;;14.07;2.22;;;18.10;88.30;;;;;;4998737;28;20186;-87
2022/07/07 06:07:47;;;;;;;7.20;2.05;;;18.00;88.10;;;;;;5004711;28;20190;-87
2022/07/07 06:10:15;;;;;;;5.67;1.57;;;17.90;86.80;;;;;;5007880;28;20226;-88
2022/07/07 06:12:42;;;;;;;4.50;1.75;;;18.00;87.20;;;;;;5007240;28;20218;-89
2022/07/07 06:15:09;;;;;;;5.90;2.13;;;18.10;87.50;;;;;;5002906;28;20215;-88
2022/07/07 06:17:35;;;;;;;4.72;2.00;;;18.10;87.70;;;;;;4999246;28;20176;-88
2022/07/07 06:20:01;;;;;;;10.30;2.25;;;18.20;86.90;;;;;;4997993;28;20183;-89
2022/07/07 06:22:28;;;;;;;3.53;1.77;;;18.30;86.20;;;;;;4997896;28;20654;-89
2022/07/07 06:24:54;;;;;;;5.72;1.88;;;18.50;85.20;;;;;;4998216;28;20179;-87
2022/07/07 06:27:20;;;;;;;8.43;2.03;;;18.60;83.70;;;;;;5002543;28;20179;-88
2022/07/07 06:29:46;;;;;;;4.70;2.00;;;18.70;80.90;;;;;;4997902;28;20446;-89
2022/07/07 06:32:15;;;;;;;5.82;1.85;;;19.00;77.60;;;;;;4999475;28;20427;-89
2022/07/07 06:34:41;;;;;;;4.97;1.60;;;18.90;75.00;;;;;;4997684;28;20179;-88
2022/07/07 06:37:07;;;;;;;6.43;1.25;;;18.80;75.30;;;;;;4995998;28;20180;-89
2022/07/07 06:39:33;;;;;;;10.20;2.88;;;18.60;75.20;;;;;;4996305;28;20190;-88
2022/07/07 06:41:59;;;;;;;6.03;1.45;;;18.50;76.10;;;;;;4996221;28;20182;-89
2022/07/07 06:44:30;;;;;;;10.40;2.40;;;18.50;75.30;;;;;;4997645;28;20199;-88
2022/07/07 06:47:00;;;;;;;7.28;2.05;;;18.60;75.30;;;;;;4996741;28;20418;-88
2022/07/07 06:49:27;;;;;;;8.50;2.10;;;18.70;75.10;;;;;;4981133;28;20183;-89
2022/07/07 06:51:53;;;;;;;13.73;2.38;;;18.80;75.10;;;;;;4996614;28;20242;-88
2022/07/07 06:54:19;;;;;;;5.22;2.00;;;18.70;74.10;;;;;;4998936;28;20199;-89
2022/07/07 06:56:55;;;;;;;8.95;2.13;;;18.90;73.60;;;;;;4997947;28;20210;-88
2022/07/07 06:59:21;;;;;;;8.07;2.45;;;19.10;73.80;;;;;;4997735;28;20179;-88
2022/07/07 07:01:47;;;;;;;13.43;2.58;;;19.20;72.70;;;;;;4997851;28;20596;-89
2022/07/07 07:04:16;;;;;;;8.87;2.80;;;19.50;70.00;;;;;;4981054;28;20206;-88
2022/07/07 07:06:42;;;;;;;7.40;2.33;;;19.70;69.00;;;;;;4997643;28;20639;-88
2022/07/07 07:09:08;;;;;;;7.20;2.30;;;20.00;67.70;;;;;;4998871;28;20453;-89
2022/07/07 07:11:34;;;;;;;5.53;1.97;;;20.20;66.00;;;;;;4997471;28;20517;-89
2022/07/07 07:14:02;;;;;;;7.13;2.80;;;20.30;64.20;;;;;;4996929;28;20908;-88
2022/07/07 07:16:29;;;;;;;7.37;2.20;;;20.20;64.40;;;;;;4996524;28;20528;-88
2022/07/07 07:18:54;;;;;;;10.90;2.27;;;20.10;64.50;;;;;;5007246;28;20449;-88
2022/07/07 07:21:20;;;;;;;12.93;2.07;;;20.30;64.20;;;;;;5008896;28;20450;-88
2022/07/07 07:23:46;;;;;;;10.13;2.20;;;20.10;64.40;;;;;;4997684;28;20222;-88
2022/07/07 07:26:12;;;;;;;4.60;1.77;;;20.10;64.40;;;;;;4998727;28;20639;-89
2022/07/07 07:28:38;;;;;;;4.20;2.03;;;20.20;65.50;;;;;;4997602;28;20207;-88
2022/07/07 07:31:04;;;;;;;7.23;2.23;;;20.20;63.80;;;;;;4996574;28;20419;-89
2022/07/07 07:33:31;;;;;;;4.63;1.90;;;20.10;63.00;;;;;;4998989;28;20434;-88
2022/07/07 07:35:57;;;;;;;3.70;1.87;;;20.10;63.60;;;;;;4999457;28;20465;-88
2022/07/07 07:38:23;;;;;;;11.70;2.27;;;20.30;62.10;;;;;;4996912;28;20425;-90
2022/07/07 07:40:48;;;;;;;3.27;2.00;;;20.20;61.80;;;;;;4998321;28;20427;-90
2022/07/07 07:43:14;;;;;;;5.93;2.20;;;20.10;62.40;;;;;;4998272;28;20302;-87
2022/07/07 07:45:40;;;;;;;10.03;2.30;;;20.30;61.90;;;;;;5014355;23;20230;-87
2022/07/07 07:48:05;;;;;;;11.63;2.03;;;19.90;63.10;;;;;;4988970;28;20188;-89
2022/07/07 07:50:32;;;;;;;3.47;1.43;;;19.70;63.40;;;;;;4989813;28;20164;-87
2022/07/07 07:52:59;;;;;;;8.85;1.63;;;19.50;62.70;;;;;;4994944;28;20427;-88
2022/07/07 07:55:25;;;;;;;3.80;1.67;;;19.80;61.10;;;;;;4989046;28;20683;-88
2022/07/07 07:57:51;;;;;;;7.47;1.83;;;19.70;61.80;;;;;;4975834;28;20195;-87
2022/07/07 08:00:20;;;;;;;4.53;1.23;;;19.70;62.60;;;;;;4977786;28;20423;-87
2022/07/07 08:02:49;;;;;;;3.33;1.35;;;19.70;63.00;;;;;;4977838;28;20203;-87
2022/07/07 08:05:16;;;;;;;4.68;1.20;;;19.20;67.60;;;;;;4960199;28;20200;-87
2022/07/07 08:07:44;;;;;;;6.72;1.40;;;19.00;71.70;;;;;;4983692;28;20191;-90
2022/07/07 08:10:11;;;;;;;2.92;1.00;;;18.80;73.70;;;;;;4971049;28;20187;-88
2022/07/07 08:12:37;;;;;;;2.85;0.85;;;18.80;73.00;;;;;;4969796;28;20172;-87
2022/07/07 08:15:05;;;;;;;1.85;1.00;;;19.00;71.20;;;;;;4987614;28;20203;-87
2022/07/07 08:17:31;;;;;;;3.08;0.90;;;19.10;70.40;;;;;;4985152;28;20180;-87
2022/07/07 08:19:57;;;;;;;2.10;0.90;;;19.30;70.60;;;;;;4978403;28;20266;-87
2022/07/07 08:22:23;;;;;;;2.70;0.90;;;19.60;69.20;;;;;;4976133;28;20237;-87
2022/07/07 08:24:49;;;;;;;2.67;1.10;;;20.00;66.90;;;;;;4984142;28;20435;-87
2022/07/07 08:27:14;;;;;;;5.77;1.20;;;20.10;67.30;;;;;;4988962;28;20415;-88
2022/07/07 08:29:41;;;;;;;2.73;1.10;;;20.00;66.20;;;;;;4984861;28;20523;-87
2022/07/07 08:32:10;;;;;;;5.20;1.40;;;20.20;66.20;;;;;;4976162;28;20423;-87
2022/07/07 08:34:38;;;;;;;4.07;1.80;;;20.00;65.70;;;;;;4979721;28;20415;-88
2022/07/07 08:37:05;;;;;;;3.20;1.33;;;20.20;65.00;;;;;;4983459;28;20442;-89
2022/07/07 08:39:31;;;;;;;2.43;1.30;;;20.50;64.30;;;;;;4985939;28;20446;-88
2022/07/07 08:41:56;;;;;;;4.23;1.60;;;20.50;63.70;;;;;;4985943;28;20423;-88
2022/07/07 08:44:23;;;;;;;6.70;1.53;;;20.50;63.60;;;;;;4982994;28;20635;-89
2022/07/07 08:46:49;;;;;;;4.30;1.57;;;20.60;63.40;;;;;;4980516;28;20306;-89
2022/07/07 08:49:15;;;;;;;4.50;1.77;;;20.30;64.00;;;;;;4983320;28;20554;-88
2022/07/07 08:51:42;;;;;;;8.57;2.20;;;20.10;65.40;;;;;;4983281;28;20938;-87
2022/07/07 08:54:13;;;;;;;5.55;1.70;;;19.80;73.50;;;;;;4988093;28;20199;-88
2022/07/07 08:56:40;;;;;;;2.72;1.20;;;18.90;77.40;;;;;;4981544;28;20261;-87
2022/07/07 08:59:07;;;;;;;3.22;1.30;;;18.30;80.50;;;;;;4985821;28;20206;-88
2022/07/07 09:01:33;;;;;;;1.92;1.20;;;18.30;81.40;;;;;;4992007;28;20215;-88
2022/07/07 09:04:01;;;;;;;4.03;1.10;;;18.20;80.00;;;;;;4999847;28;20176;-88
2022/07/07 09:06:26;;;;;;;4.95;1.13;;;18.40;79.80;;;;;;4999768;28;20230;-89
2022/07/07 09:08:54;;;;;;;1.67;0.97;;;18.40;78.40;;;;;;4999792;28;20255;-87
2022/07/07 09:11:30;;;;;;;2.78;1.02;;;18.50;76.50;;;;;;4999880;28;20434;-88
2022/07/07 09:14:16;;;;;;;1.60;1.10;;;18.70;76.80;;;;;;4997120;28;20184;-88
2022/07/07 09:16:42;;;;;;;2.30;1.30;;;18.80;74.20;;;;;;4984191;28;20398;-88
2022/07/07 09:19:28;;;;;;;4.15;1.50;;;18.90;73.70;;;;;;4992664;28;20160;-88
2022/07/07 09:21:54;;;;;;;4.32;1.65;;;19.10;73.40;;;;;;4981607;28;20187;-88
2022/07/07 09:24:19;;;;;;;4.73;2.07;;;19.40;70.90;;;;;;4990515;28;20187;-86
2022/07/07 09:26:51;;;;;;;3.53;2.00;;;19.90;69.90;;;;;;4996585;28;20202;-86
2022/07/07 09:29:22;;;;;;;6.03;1.80;;;19.80;69.80;;;;;;4997016;28;20172;-87
2022/07/07 09:31:59;;;;;;;5.53;1.73;;;20.10;68.10;;;;;;4999285;28;20437;-87
2022/07/07 09:34:44;;;;;;;4.43;2.07;;;20.00;69.10;;;;;;4998342;28;20438;-87
2022/07/07 09:39:56;;;;;;;3.53;1.57;;;19.60;71.60;;;;;;5000540;28;20410;-87
2022/07/07 09:42:33;;;;;;;8.83;1.73;;;19.60;70.30;;;;;;5000000;28;20407;-88
2022/07/07 09:45:00;;;;;;;4.53;1.60;;;19.70;70.20;;;;;;4999013;28;20478;-87
2022/07/07 09:47:27;;;;;;;4.40;1.50;;;19.50;69.60;;;;;;4998614;28;20428;-87
2022/07/07 09:50:09;;;;;;;8.70;1.53;;;19.40;70.10;;;;;;4983226;28;20184;-86
2022/07/07 09:52:37;;;;;;;8.85;1.52;;;19.50;69.80;;;;;;4981332;28;20438;-87
2022/07/07 09:55:06;;;;;;;5.00;1.58;;;19.50;69.10;;;;;;4979445;28;20215;-86
2022/07/07 09:57:32;;;;;;;4.88;1.67;;;19.70;69.00;;;;;;4964788;28;20215;-86
2022/07/07 09:59:57;;;;;;;9.67;1.40;;;19.70;66.90;;;;;;4976519;28;20172;-86
2022/07/07 10:02:26;;;;;;;2.70;1.20;;;19.90;66.00;;;;;;4977420;28;20428;-87
2022/07/07 10:04:53;;;;;;;7.33;1.57;;;20.30;64.00;;;;;;4978116;28;20683;-87
2022/07/07 10:07:22;;;;;;;2.07;1.30;;;20.70;63.20;;;;;;4978307;28;20499;-87
2022/07/07 10:10:01;;;;;;;6.70;1.30;;;20.70;63.10;;;;;;4979949;28;20426;-87
2022/07/07 10:12:28;;;;;;;4.63;1.50;;;20.80;62.60;;;;;;4961800;28;20786;-87
2022/07/07 10:14:59;;;;;;;3.03;1.50;;;20.70;62.80;;;;;;4967223;28;20453;-88
2022/07/07 10:17:27;;;;;;;7.30;2.47;;;20.70;64.30;;;;;;4987274;28;20426;-87
2022/07/07 10:19:52;;;;;;;2.77;1.50;;;20.30;66.10;;;;;;4977930;28;20446;-87
2022/07/07 10:22:21;;;;;;;4.53;1.50;;;20.00;67.70;;;;;;4978668;28;20411;-87
2022/07/07 10:24:47;;;;;;;5.17;1.30;;;20.20;68.60;;;;;;4977449;28;20208;-87
2022/07/07 10:27:15;;;;;;;3.67;1.57;;;20.30;68.70;;;;;;4988003;28;20418;-87
2022/07/07 10:29:45;;;;;;;3.33;1.50;;;20.50;67.10;;;;;;4988119;28;20429;-87
2022/07/07 10:32:49;;;;;;;5.03;1.90;;;20.70;65.70;;;;;;4977223;28;20427;-87
2022/07/07 10:35:16;;;;;;;5.27;1.53;;;20.70;65.30;;;;;;4977266;28;20469;-87
2022/07/07 10:37:48;;;;;;;12.10;2.57;;;20.60;65.30;;;;;;4975721;28;20790;-87
2022/07/07 10:40:29;;;;;;;4.93;2.20;;;20.20;68.70;;;;;;4976544;28;20532;-87
2022/07/07 10:43:29;;;;;;;5.50;1.87;;;19.90;74.40;;;;;;4977135;28;20423;-87
2022/07/07 10:45:56;;;;;;;3.67;2.13;;;19.50;76.50;;;;;;4989427;28;20463;-87
2022/07/07 10:48:44;;;;;;;8.18;2.15;;;19.30;78.70;;;;;;4976694;28;20422;-87
2022/07/07 10:51:20;;;;;;;2.17;1.42;;;19.30;78.90;;;;;;4975963;28;20899;-87
2022/07/07 10:54:01;;;;;;;4.55;2.05;;;19.20;78.70;;;;;;4979747;28;20183;-87
2022/07/07 10:56:27;;;;;;;6.82;1.80;;;19.30;78.70;;;;;;4991191;28;20245;-87
2022/07/07 10:59:00;;;;;;;5.25;2.05;;;19.50;78.50;;;;;;4996645;28;20183;-87
2022/07/07 11:01:31;;;;;;;4.70;2.03;;;19.50;77.80;;;;;;4980842;28;20263;-86
2022/07/07 11:03:57;;;;;;;6.40;2.05;;;19.40;75.90;;;;;;4984348;28;20176;-87
2022/07/07 11:06:23;;;;;;;4.38;2.17;;;19.40;74.90;;;;;;4986739;28;20239;-87
2022/07/07 11:08:57;;;;;;;5.03;1.70;;;19.60;74.90;;;;;;4984554;28;20187;-87
2022/07/07 11:11:23;;;;;;;4.90;1.60;;;19.90;72.90;;;;;;4984437;28;20488;-87
2022/07/07 11:14:07;;;;;;;4.90;1.50;;;20.30;69.10;;;;;;4987475;28;20419;-88
2022/07/07 11:16:34;;;;;;;4.10;2.10;;;20.20;69.50;;;;;;4996402;28;20465;-88
2022/07/07 11:19:03;;;;;;;5.63;2.03;;;20.20;68.30;;;;;;4996933;28;20420;-88
2022/07/07 11:21:47;;;;;;;6.23;2.00;;;19.90;68.20;;;;;;4998286;28;20549;-86
2022/07/07 11:24:21;;;;;;;4.10;2.10;;;19.70;68.60;;;;;;4997840;28;20412;-88
2022/07/07 11:27:01;;;;;;;3.87;1.70;;;19.80;68.40;;;;;;4990467;28;20461;-86
2022/07/07 11:29:28;;;;;;;3.20;1.67;;;20.10;67.90;;;;;;4978233;28;20419;-87
2022/07/07 11:32:04;;;;;;;5.40;1.77;;;20.10;65.70;;;;;;4990651;28;20424;-87
2022/07/07 11:34:44;;;;;;;4.67;1.50;;;20.20;65.50;;;;;;4987320;28;20426;-87
2022/07/07 11:37:26;;;;;;;6.17;1.63;;;20.30;65.40;;;;;;4975769;28;20435;-87
2022/07/07 11:39:52;;;;;;;6.27;2.27;;;20.30;65.30;;;;;;4975763;28;20431;-88
2022/07/07 11:42:18;;;;;;;5.23;2.03;;;20.20;66.10;;;;;;4975806;28;20416;-87
2022/07/07 11:44:44;;;;;;;4.27;2.10;;;20.20;67.10;;;;;;4975816;28;20428;-87
2022/07/07 11:47:09;;;;;;;2.83;2.07;;;20.40;67.20;;;;;;4975655;28;20188;-87
2022/07/07 11:49:35;;;;;;;6.33;2.00;;;20.30;65.60;;;;;;4975947;28;20421;-86
2022/07/07 11:52:01;;;;;;;6.77;1.67;;;20.40;64.00;;;;;;4976927;28;20280;-86
2022/07/07 11:54:28;;;;;;;7.63;2.03;;;20.50;62.70;;;;;;4975925;28;20194;-87
2022/07/07 11:56:54;;;;;;;6.10;2.10;;;20.30;62.60;;;;;;4974458;28;20219;-86
2022/07/07 11:59:23;;;;;;;4.90;1.90;;;20.20;64.20;;;;;;4976015;28;20795;-86
2022/07/07 12:01:50;;;;;;;6.70;1.50;;;20.20;65.20;;;;;;4976770;28;20446;-87
2022/07/07 12:04:20;;;;;;;7.00;2.20;;;20.10;65.50;;;;;;4990586;28;20407;-88
2022/07/07 12:06:46;;;;;;;6.90;2.00;;;19.90;66.20;;;;;;4976990;28;20792;-87
2022/07/07 12:09:13;;;;;;;5.33;1.80;;;20.20;65.70;;;;;;4982640;28;20478;-87
2022/07/07 12:11:42;;;;;;;8.33;1.90;;;20.10;66.50;;;;;;4992503;28;20435;-86
2022/07/07 12:14:10;;;;;;;5.33;2.10;;;20.00;66.80;;;;;;4993722;28;20427;-87
2022/07/07 12:16:43;;;;;;;1.50;1.27;;;20.10;66.70;;;;;;4995426;28;20478;-87
2022/07/07 12:19:09;;;;;;;8.00;2.03;;;20.00;66.30;;;;;;4989043;28;20415;-87
2022/07/07 12:21:42;;;;;;;4.37;2.30;;;20.20;66.40;;;;;;4984144;28;20482;-87
2022/07/07 12:24:11;;;;;;;4.77;2.07;;;20.50;65.50;;;;;;4981289;28;20202;-87
2022/07/07 12:26:47;;;;;;;4.33;2.07;;;20.60;63.90;;;;;;4986472;28;20447;-87
2022/07/07 12:29:13;;;;;;;7.60;2.07;;;20.40;63.80;;;;;;4974791;28;20437;-87
2022/07/07 12:31:39;;;;;;;3.80;2.13;;;20.50;64.10;;;;;;4988411;28;20455;-87
2022/07/07 12:34:15;;;;;;;4.60;2.47;;;20.30;63.80;;;;;;4988117;28;20192;-85
2022/07/07 12:36:44;;;;;;;3.87;1.90;;;19.90;65.50;;;;;;4983573;28;20486;-87
2022/07/07 12:39:10;;;;;;;7.80;2.00;;;19.90;67.00;;;;;;4982466;28;20403;-89
2022/07/07 12:41:38;;;;;;;5.03;2.10;;;19.90;66.60;;;;;;4978885;28;20932;-88
2022/07/07 12:44:22;;;;;;;4.57;1.77;;;19.70;66.50;;;;;;4979055;28;20798;-88
2022/07/07 12:46:48;;;;;;;8.97;1.60;;;19.60;67.10;;;;;;4978434;28;20538;-89
2022/07/07 12:49:18;;;;;;;10.37;1.80;;;19.60;66.70;;;;;;4980653;28;20439;-87
2022/07/07 12:51:49;;;;;;;2.80;1.30;;;19.70;66.70;;;;;;4980499;28;20492;-87